sensor_id;sensor_type;location;lat;lon;timestamp;temperature;humidity
7648;DHT22;3866;48.020;11.720;2022-12-18T00:02:06;-4.60;99.90
7648;DHT22;3866;48.020;11.720;2022-12-18T00:04:34;-4.60;99.90
7648;DHT22;3866;48.020;11.720;2022-12-18T00:07:01;-4.60;99.90
7648;DHT22;3866;48.020;11.720;2022-12-18T00:09:28;-4.70;99.90
7648;DHT22;3866;48.020;11.720;2022-12-18T00:11:55;-4.80;99.90
7648;DHT22;3866;48.020;11.720;2022-12-18T00:14:22;-4.80;99.90
7648;DHT22;3866;48.020;11.720;2022-12-18T00:16:49;-4.70;99.90
7648;DHT22;3866;48.020;11.720;2022-12-18T00:19:16;-4.70;99.90
7648;DHT22;3866;48.020;11.720;2022-12-18T00:21:44;-4.80;99.90
7648;DHT22;3866;48.020;11.720;2022-12-18T00:24:12;-4.90;99.90
7648;DHT22;3866;48.020;11.720;2022-12-18T00:26:39;-4.80;99.90
7648;DHT22;3866;48.020;11.720;2022-12-18T00:29:09;-4.90;99.90
7648;DHT22;3866;48.020;11.720;2022-12-18T00:31:37;-4.90;99.90
7648;DHT22;3866;48.020;11.720;2022-12-18T00:34:04;-4.80;99.90
7648;DHT22;3866;48.020;11.720;2022-12-18T00:36:33;-4.80;99.90
7648;DHT22;3866;48.020;11.720;2022-12-18T00:39:03;-4.90;99.90
7648;DHT22;3866;48.020;11.720;2022-12-18T00:41:31;-4.80;99.90
7648;DHT22;3866;48.020;11.720;2022-12-18T00:44:17;-4.80;99.90
7648;DHT22;3866;48.020;11.720;2022-12-18T00:46:45;-4.90;99.90
7648;DHT22;3866;48.020;11.720;2022-12-18T00:49:12;-4.90;99.90
7648;DHT22;3866;48.020;11.720;2022-12-18T00:51:39;-4.90;99.90
7648;DHT22;3866;48.020;11.720;2022-12-18T00:54:07;-4.90;99.90
7648;DHT22;3866;48.020;11.720;2022-12-18T00:56:35;-4.90;99.90
7648;DHT22;3866;48.020;11.720;2022-12-18T00:59:03;-5.00;99.90
7648;DHT22;3866;48.020;11.720;2022-12-18T01:01:30;-5.00;99.90
7648;DHT22;3866;48.020;11.720;2022-12-18T01:03:58;-5.00;99.90
7648;DHT22;3866;48.020;11.720;2022-12-18T01:06:25;-5.10;99.90
7648;DHT22;3866;48.020;11.720;2022-12-18T01:08:52;-5.00;99.90
7648;DHT22;3866;48.020;11.720;2022-12-18T01:11:21;-4.90;99.90
7648;DHT22;3866;48.020;11.720;2022-12-18T01:13:48;-4.90;99.90
7648;DHT22;3866;48.020;11.720;2022-12-18T01:16:17;-4.90;99.90
7648;DHT22;3866;48.020;11.720;2022-12-18T01:18:44;-4.90;99.90
7648;DHT22;3866;48.020;11.720;2022-12-18T01:21:14;-4.90;99.90
7648;DHT22;3866;48.020;11.720;2022-12-18T01:23:41;-4.90;99.90
7648;DHT22;3866;48.020;11.720;2022-12-18T01:26:11;-4.80;99.90
7648;DHT22;3866;48.020;11.720;2022-12-18T01:28:40;-4.90;99.90
7648;DHT22;3866;48.020;11.720;2022-12-18T01:31:16;-4.90;99.90
7648;DHT22;3866;48.020;11.720;2022-12-18T01:33:44;-4.90;99.90
7648;DHT22;3866;48.020;11.720;2022-12-18T01:36:16;-4.90;99.90
7648;DHT22;3866;48.020;11.720;2022-12-18T01:38:44;-4.90;99.90
7648;DHT22;3866;48.020;11.720;2022-12-18T01:41:11;-4.90;99.90
7648;DHT22;3866;48.020;11.720;2022-12-18T01:43:45;-4.90;99.90
7648;DHT22;3866;48.020;11.720;2022-12-18T01:46:12;-4.90;99.90
7648;DHT22;3866;48.020;11.720;2022-12-18T01:48:40;-4.80;99.90
7648;DHT22;3866;48.020;11.720;2022-12-18T01:51:08;-4.80;99.90
7648;DHT22;3866;48.020;11.720;2022-12-18T01:53:36;-4.70;99.90
7648;DHT22;3866;48.020;11.720;2022-12-18T01:56:04;-4.80;99.90
7648;DHT22;3866;48.020;11.720;2022-12-18T01:58:37;-4.80;99.90
7648;DHT22;3866;48.020;11.720;2022-12-18T02:01:07;-4.80;99.90
7648;DHT22;3866;48.020;11.720;2022-12-18T02:03:34;-4.70;99.90
7648;DHT22;3866;48.020;11.720;2022-12-18T02:06:07;-4.70;99.90
7648;DHT22;3866;48.020;11.720;2022-12-18T02:08:43;-4.60;99.90
7648;DHT22;3866;48.020;11.720;2022-12-18T02:11:23;-4.70;99.90
7648;DHT22;3866;48.020;11.720;2022-12-18T02:14:00;-4.70;99.90
7648;DHT22;3866;48.020;11.720;2022-12-18T02:16:34;-4.70;99.90
7648;DHT22;3866;48.020;11.720;2022-12-18T02:19:14;-4.60;99.90
7648;DHT22;3866;48.020;11.720;2022-12-18T02:21:50;-4.60;99.90
7648;DHT22;3866;48.020;11.720;2022-12-18T02:24:28;-4.60;99.90
7648;DHT22;3866;48.020;11.720;2022-12-18T02:26:59;-4.70;99.90
7648;DHT22;3866;48.020;11.720;2022-12-18T02:29:32;-4.60;99.90
7648;DHT22;3866;48.020;11.720;2022-12-18T02:32:03;-4.60;99.90
7648;DHT22;3866;48.020;11.720;2022-12-18T02:34:33;-4.70;99.90
7648;DHT22;3866;48.020;11.720;2022-12-18T02:37:05;-4.60;99.90
7648;DHT22;3866;48.020;11.720;2022-12-18T02:39:36;-4.60;99.90
7648;DHT22;3866;48.020;11.720;2022-12-18T02:42:06;-4.60;99.90
7648;DHT22;3866;48.020;11.720;2022-12-18T02:44:34;-4.70;99.90
7648;DHT22;3866;48.020;11.720;2022-12-18T02:47:02;-4.70;99.90
7648;DHT22;3866;48.020;11.720;2022-12-18T02:49:34;-4.80;99.90
7648;DHT22;3866;48.020;11.720;2022-12-18T02:52:08;-4.80;99.90
7648;DHT22;3866;48.020;11.720;2022-12-18T02:54:50;-4.80;99.90
7648;DHT22;3866;48.020;11.720;2022-12-18T02:57:24;-4.70;99.90
7648;DHT22;3866;48.020;11.720;2022-12-18T03:00:00;-4.70;99.90
7648;DHT22;3866;48.020;11.720;2022-12-18T03:02:33;-4.70;99.90
7648;DHT22;3866;48.020;11.720;2022-12-18T03:05:10;-4.70;99.90
7648;DHT22;3866;48.020;11.720;2022-12-18T03:07:43;-4.80;99.90
7648;DHT22;3866;48.020;11.720;2022-12-18T03:10:13;-4.70;99.90
7648;DHT22;3866;48.020;11.720;2022-12-18T03:12:46;-4.70;99.90
7648;DHT22;3866;48.020;11.720;2022-12-18T03:15:17;-4.80;99.90
7648;DHT22;3866;48.020;11.720;2022-12-18T03:17:50;-4.70;99.90
7648;DHT22;3866;48.020;11.720;2022-12-18T03:20:21;-4.70;99.90
7648;DHT22;3866;48.020;11.720;2022-12-18T03:22:52;-4.80;99.90
7648;DHT22;3866;48.020;11.720;2022-12-18T03:25:20;-4.70;99.90
7648;DHT22;3866;48.020;11.720;2022-12-18T03:27:52;-4.60;99.90
7648;DHT22;3866;48.020;11.720;2022-12-18T03:30:20;-4.60;99.90
7648;DHT22;3866;48.020;11.720;2022-12-18T03:32:50;-4.80;99.90
7648;DHT22;3866;48.020;11.720;2022-12-18T03:35:22;-4.80;99.90
7648;DHT22;3866;48.020;11.720;2022-12-18T03:37:50;-4.80;99.90
7648;DHT22;3866;48.020;11.720;2022-12-18T03:40:19;-4.80;99.90
7648;DHT22;3866;48.020;11.720;2022-12-18T03:42:51;-4.80;99.90
7648;DHT22;3866;48.020;11.720;2022-12-18T03:45:22;-4.80;99.90
7648;DHT22;3866;48.020;11.720;2022-12-18T03:47:58;-4.80;99.90
7648;DHT22;3866;48.020;11.720;2022-12-18T03:50:33;-4.80;99.90
7648;DHT22;3866;48.020;11.720;2022-12-18T03:53:09;-4.80;99.90
7648;DHT22;3866;48.020;11.720;2022-12-18T03:55:39;-4.80;99.90
7648;DHT22;3866;48.020;11.720;2022-12-18T03:58:09;-4.80;99.90
7648;DHT22;3866;48.020;11.720;2022-12-18T04:00:39;-4.80;99.90
7648;DHT22;3866;48.020;11.720;2022-12-18T04:03:07;-4.80;99.90
7648;DHT22;3866;48.020;11.720;2022-12-18T04:05:36;-4.70;99.90
7648;DHT22;3866;48.020;11.720;2022-12-18T04:08:04;-4.70;99.90
7648;DHT22;3866;48.020;11.720;2022-12-18T04:10:31;-4.60;99.90
7648;DHT22;3866;48.020;11.720;2022-12-18T04:12:58;-4.90;99.90
7648;DHT22;3866;48.020;11.720;2022-12-18T04:15:27;-4.90;99.90
7648;DHT22;3866;48.020;11.720;2022-12-18T04:17:53;-4.80;99.90
7648;DHT22;3866;48.020;11.720;2022-12-18T04:20:20;-4.80;99.90
7648;DHT22;3866;48.020;11.720;2022-12-18T04:22:47;-4.80;99.90
7648;DHT22;3866;48.020;11.720;2022-12-18T04:25:14;-4.80;99.90
7648;DHT22;3866;48.020;11.720;2022-12-18T04:27:41;-4.90;99.90
7648;DHT22;3866;48.020;11.720;2022-12-18T04:30:09;-4.90;99.90
7648;DHT22;3866;48.020;11.720;2022-12-18T04:32:37;-4.90;99.90
7648;DHT22;3866;48.020;11.720;2022-12-18T04:35:05;-4.90;99.90
7648;DHT22;3866;48.020;11.720;2022-12-18T04:37:36;-5.00;99.90
7648;DHT22;3866;48.020;11.720;2022-12-18T04:40:03;-5.10;99.90
7648;DHT22;3866;48.020;11.720;2022-12-18T04:42:30;-5.00;99.90
7648;DHT22;3866;48.020;11.720;2022-12-18T04:44:57;-5.00;99.90
7648;DHT22;3866;48.020;11.720;2022-12-18T04:47:24;-5.00;99.90
7648;DHT22;3866;48.020;11.720;2022-12-18T04:49:52;-5.00;99.90
7648;DHT22;3866;48.020;11.720;2022-12-18T04:52:19;-5.00;99.90
7648;DHT22;3866;48.020;11.720;2022-12-18T04:54:46;-5.10;99.90
7648;DHT22;3866;48.020;11.720;2022-12-18T04:57:13;-5.10;99.90
7648;DHT22;3866;48.020;11.720;2022-12-18T04:59:40;-5.00;99.90
7648;DHT22;3866;48.020;11.720;2022-12-18T05:02:07;-5.00;99.90
7648;DHT22;3866;48.020;11.720;2022-12-18T05:04:34;-5.00;99.90
7648;DHT22;3866;48.020;11.720;2022-12-18T05:07:02;-5.10;99.90
7648;DHT22;3866;48.020;11.720;2022-12-18T05:09:29;-5.20;99.90
7648;DHT22;3866;48.020;11.720;2022-12-18T05:11:56;-5.20;99.90
7648;DHT22;3866;48.020;11.720;2022-12-18T05:14:23;-5.00;99.90
7648;DHT22;3866;48.020;11.720;2022-12-18T05:16:50;-5.00;99.90
7648;DHT22;3866;48.020;11.720;2022-12-18T05:19:17;-5.10;99.90
7648;DHT22;3866;48.020;11.720;2022-12-18T05:21:44;-5.10;99.90
7648;DHT22;3866;48.020;11.720;2022-12-18T05:24:12;-5.00;99.90
7648;DHT22;3866;48.020;11.720;2022-12-18T05:26:39;-5.00;99.90
7648;DHT22;3866;48.020;11.720;2022-12-18T05:29:06;-5.00;99.90
7648;DHT22;3866;48.020;11.720;2022-12-18T05:31:33;-4.90;99.90
7648;DHT22;3866;48.020;11.720;2022-12-18T05:34:00;-4.90;99.90
7648;DHT22;3866;48.020;11.720;2022-12-18T05:36:27;-4.80;99.90
7648;DHT22;3866;48.020;11.720;2022-12-18T05:38:53;-4.80;99.90
7648;DHT22;3866;48.020;11.720;2022-12-18T05:41:22;-4.90;99.90
7648;DHT22;3866;48.020;11.720;2022-12-18T05:43:49;-5.00;99.90
7648;DHT22;3866;48.020;11.720;2022-12-18T05:46:17;-5.00;99.90
7648;DHT22;3866;48.020;11.720;2022-12-18T05:48:44;-5.10;99.90
7648;DHT22;3866;48.020;11.720;2022-12-18T05:51:14;-5.00;99.90
7648;DHT22;3866;48.020;11.720;2022-12-18T05:53:41;-5.00;99.90
7648;DHT22;3866;48.020;11.720;2022-12-18T05:56:09;-5.10;99.90
7648;DHT22;3866;48.020;11.720;2022-12-18T05:58:38;-5.20;99.90
7648;DHT22;3866;48.020;11.720;2022-12-18T06:01:07;-5.20;99.90
7648;DHT22;3866;48.020;11.720;2022-12-18T06:03:35;-5.40;99.90
7648;DHT22;3866;48.020;11.720;2022-12-18T06:06:02;-5.30;99.90
7648;DHT22;3866;48.020;11.720;2022-12-18T06:08:29;-5.20;99.90
7648;DHT22;3866;48.020;11.720;2022-12-18T06:10:56;-5.20;99.90
7648;DHT22;3866;48.020;11.720;2022-12-18T06:13:23;-5.10;99.90
7648;DHT22;3866;48.020;11.720;2022-12-18T06:15:51;-5.10;99.90
7648;DHT22;3866;48.020;11.720;2022-12-18T06:18:18;-5.10;99.90
7648;DHT22;3866;48.020;11.720;2022-12-18T06:20:45;-5.20;99.90
7648;DHT22;3866;48.020;11.720;2022-12-18T06:23:12;-5.20;99.90
7648;DHT22;3866;48.020;11.720;2022-12-18T06:25:39;-5.10;99.90
7648;DHT22;3866;48.020;11.720;2022-12-18T06:28:06;-5.20;99.90
7648;DHT22;3866;48.020;11.720;2022-12-18T06:30:33;-5.40;99.90
7648;DHT22;3866;48.020;11.720;2022-12-18T06:33:01;-5.40;99.90
7648;DHT22;3866;48.020;11.720;2022-12-18T06:35:28;-5.60;99.90
7648;DHT22;3866;48.020;11.720;2022-12-18T06:37:55;-5.50;99.90
7648;DHT22;3866;48.020;11.720;2022-12-18T06:40:22;-5.40;99.90
7648;DHT22;3866;48.020;11.720;2022-12-18T06:42:49;-5.30;99.90
7648;DHT22;3866;48.020;11.720;2022-12-18T06:45:15;-5.30;99.90
7648;DHT22;3866;48.020;11.720;2022-12-18T06:47:42;-5.30;99.90
7648;DHT22;3866;48.020;11.720;2022-12-18T06:50:12;-5.40;99.90
7648;DHT22;3866;48.020;11.720;2022-12-18T06:52:39;-5.40;99.90
7648;DHT22;3866;48.020;11.720;2022-12-18T06:55:07;-5.30;99.90
7648;DHT22;3866;48.020;11.720;2022-12-18T06:57:34;-5.30;99.90
7648;DHT22;3866;48.020;11.720;2022-12-18T07:00:02;-5.30;99.90
7648;DHT22;3866;48.020;11.720;2022-12-18T07:02:29;-5.50;99.90
7648;DHT22;3866;48.020;11.720;2022-12-18T07:04:56;-5.60;99.90
7648;DHT22;3866;48.020;11.720;2022-12-18T07:07:24;-5.40;99.90
7648;DHT22;3866;48.020;11.720;2022-12-18T07:09:51;-5.30;99.90
7648;DHT22;3866;48.020;11.720;2022-12-18T07:12:18;-5.30;99.90
7648;DHT22;3866;48.020;11.720;2022-12-18T07:14:45;-5.30;99.90
7648;DHT22;3866;48.020;11.720;2022-12-18T07:17:12;-5.30;99.90
7648;DHT22;3866;48.020;11.720;2022-12-18T07:19:39;-5.30;99.90
7648;DHT22;3866;48.020;11.720;2022-12-18T07:22:06;-5.20;99.90
7648;DHT22;3866;48.020;11.720;2022-12-18T07:24:34;-5.30;99.90
7648;DHT22;3866;48.020;11.720;2022-12-18T07:27:01;-5.40;99.90
7648;DHT22;3866;48.020;11.720;2022-12-18T07:29:28;-5.30;99.90
7648;DHT22;3866;48.020;11.720;2022-12-18T07:31:55;-5.30;99.90
7648;DHT22;3866;48.020;11.720;2022-12-18T07:34:22;-5.30;99.90
7648;DHT22;3866;48.020;11.720;2022-12-18T07:36:49;-5.10;99.90
7648;DHT22;3866;48.020;11.720;2022-12-18T07:39:16;-5.10;99.90
7648;DHT22;3866;48.020;11.720;2022-12-18T07:41:44;-5.00;99.90
7648;DHT22;3866;48.020;11.720;2022-12-18T07:44:31;-5.00;99.90
7648;DHT22;3866;48.020;11.720;2022-12-18T07:46:58;-5.10;99.90
7648;DHT22;3866;48.020;11.720;2022-12-18T07:49:25;-5.10;99.90
7648;DHT22;3866;48.020;11.720;2022-12-18T07:51:54;-5.30;99.90
7648;DHT22;3866;48.020;11.720;2022-12-18T07:54:21;-5.40;99.90
7648;DHT22;3866;48.020;11.720;2022-12-18T07:56:50;-5.60;99.90
7648;DHT22;3866;48.020;11.720;2022-12-18T07:59:17;-5.60;99.90
7648;DHT22;3866;48.020;11.720;2022-12-18T08:01:44;-5.50;99.90
7648;DHT22;3866;48.020;11.720;2022-12-18T08:04:11;-5.50;99.90
7648;DHT22;3866;48.020;11.720;2022-12-18T08:06:38;-5.50;99.90
7648;DHT22;3866;48.020;11.720;2022-12-18T08:09:05;-5.50;99.90
7648;DHT22;3866;48.020;11.720;2022-12-18T08:11:33;-5.50;99.90
7648;DHT22;3866;48.020;11.720;2022-12-18T08:14:01;-5.60;99.90
7648;DHT22;3866;48.020;11.720;2022-12-18T08:16:28;-5.50;99.90
7648;DHT22;3866;48.020;11.720;2022-12-18T08:18:56;-5.50;99.90
7648;DHT22;3866;48.020;11.720;2022-12-18T08:21:24;-5.50;99.90
7648;DHT22;3866;48.020;11.720;2022-12-18T08:23:53;-5.50;99.90
7648;DHT22;3866;48.020;11.720;2022-12-18T08:26:20;-5.50;99.90
7648;DHT22;3866;48.020;11.720;2022-12-18T08:28:49;-5.70;99.90
7648;DHT22;3866;48.020;11.720;2022-12-18T08:31:18;-5.70;99.90
7648;DHT22;3866;48.020;11.720;2022-12-18T08:33:45;-5.60;99.90
7648;DHT22;3866;48.020;11.720;2022-12-18T08:36:14;-5.70;99.90
7648;DHT22;3866;48.020;11.720;2022-12-18T08:38:41;-5.60;99.90
7648;DHT22;3866;48.020;11.720;2022-12-18T08:41:10;-5.50;99.90
7648;DHT22;3866;48.020;11.720;2022-12-18T08:43:37;-5.40;99.90
7648;DHT22;3866;48.020;11.720;2022-12-18T08:46:25;-5.40;99.90
7648;DHT22;3866;48.020;11.720;2022-12-18T08:48:54;-5.30;99.90
7648;DHT22;3866;48.020;11.720;2022-12-18T08:51:21;-5.40;99.90
7648;DHT22;3866;48.020;11.720;2022-12-18T08:53:48;-5.40;99.90
7648;DHT22;3866;48.020;11.720;2022-12-18T08:56:15;-5.50;99.90
7648;DHT22;3866;48.020;11.720;2022-12-18T08:58:42;-5.50;99.90
7648;DHT22;3866;48.020;11.720;2022-12-18T09:01:10;-5.60;99.90
7648;DHT22;3866;48.020;11.720;2022-12-18T09:03:39;-5.60;99.90
7648;DHT22;3866;48.020;11.720;2022-12-18T09:06:07;-5.50;99.90
7648;DHT22;3866;48.020;11.720;2022-12-18T09:08:34;-5.50;99.90
7648;DHT22;3866;48.020;11.720;2022-12-18T09:11:02;-5.40;99.90
7648;DHT22;3866;48.020;11.720;2022-12-18T09:13:29;-5.40;99.90
7648;DHT22;3866;48.020;11.720;2022-12-18T09:15:56;-5.40;99.90
7648;DHT22;3866;48.020;11.720;2022-12-18T09:18:23;-5.40;99.90
7648;DHT22;3866;48.020;11.720;2022-12-18T09:20:52;-5.40;99.90
7648;DHT22;3866;48.020;11.720;2022-12-18T09:23:19;-5.20;99.90
7648;DHT22;3866;48.020;11.720;2022-12-18T09:25:46;-5.30;99.90
7648;DHT22;3866;48.020;11.720;2022-12-18T09:28:16;-5.00;99.90
7648;DHT22;3866;48.020;11.720;2022-12-18T09:30:45;-5.00;99.90
7648;DHT22;3866;48.020;11.720;2022-12-18T09:33:12;-4.90;99.90
7648;DHT22;3866;48.020;11.720;2022-12-18T09:35:40;-4.90;99.90
7648;DHT22;3866;48.020;11.720;2022-12-18T09:38:12;-4.90;99.90
7648;DHT22;3866;48.020;11.720;2022-12-18T09:40:43;-5.00;99.90
7648;DHT22;3866;48.020;11.720;2022-12-18T09:43:15;-5.00;99.90
7648;DHT22;3866;48.020;11.720;2022-12-18T09:45:44;-5.00;99.90
7648;DHT22;3866;48.020;11.720;2022-12-18T09:48:18;-4.80;99.90
7648;DHT22;3866;48.020;11.720;2022-12-18T09:50:46;-4.90;99.90
7648;DHT22;3866;48.020;11.720;2022-12-18T09:53:19;-5.00;99.90
7648;DHT22;3866;48.020;11.720;2022-12-18T09:55:48;-5.00;99.90
7648;DHT22;3866;48.020;11.720;2022-12-18T09:58:19;-5.10;99.90
7648;DHT22;3866;48.020;11.720;2022-12-18T10:00:47;-5.20;99.90
7648;DHT22;3866;48.020;11.720;2022-12-18T10:03:15;-5.10;99.90
7648;DHT22;3866;48.020;11.720;2022-12-18T10:05:49;-4.90;99.90
7648;DHT22;3866;48.020;11.720;2022-12-18T10:08:24;-5.00;99.90
7648;DHT22;3866;48.020;11.720;2022-12-18T10:10:58;-5.20;99.90
7648;DHT22;3866;48.020;11.720;2022-12-18T10:13:31;-5.30;99.90
7648;DHT22;3866;48.020;11.720;2022-12-18T10:16:13;-5.30;99.90
7648;DHT22;3866;48.020;11.720;2022-12-18T10:18:57;-5.30;99.90
7648;DHT22;3866;48.020;11.720;2022-12-18T10:21:31;-5.40;99.90
7648;DHT22;3866;48.020;11.720;2022-12-18T10:24:08;-5.40;99.90
7648;DHT22;3866;48.020;11.720;2022-12-18T10:26:41;-5.40;99.90
7648;DHT22;3866;48.020;11.720;2022-12-18T10:29:12;-5.30;99.90
7648;DHT22;3866;48.020;11.720;2022-12-18T10:31:39;-5.20;99.90
7648;DHT22;3866;48.020;11.720;2022-12-18T10:34:09;-5.10;99.90
7648;DHT22;3866;48.020;11.720;2022-12-18T10:36:37;-5.20;99.90
7648;DHT22;3866;48.020;11.720;2022-12-18T10:39:17;-5.10;99.90
7648;DHT22;3866;48.020;11.720;2022-12-18T10:41:44;-5.30;99.90
7648;DHT22;3866;48.020;11.720;2022-12-18T10:44:16;-5.30;99.90
7648;DHT22;3866;48.020;11.720;2022-12-18T10:46:44;-5.20;99.90
7648;DHT22;3866;48.020;11.720;2022-12-18T10:49:21;-5.00;99.90
7648;DHT22;3866;48.020;11.720;2022-12-18T10:51:48;-4.90;99.90
7648;DHT22;3866;48.020;11.720;2022-12-18T10:54:20;-4.90;99.90
7648;DHT22;3866;48.020;11.720;2022-12-18T10:56:48;-4.70;99.90
7648;DHT22;3866;48.020;11.720;2022-12-18T10:59:16;-4.60;99.90
7648;DHT22;3866;48.020;11.720;2022-12-18T11:01:49;-4.70;99.90
7648;DHT22;3866;48.020;11.720;2022-12-18T11:04:19;-4.80;99.90
7648;DHT22;3866;48.020;11.720;2022-12-18T11:06:56;-4.70;99.90
7648;DHT22;3866;48.020;11.720;2022-12-18T11:09:26;-4.70;99.90
7648;DHT22;3866;48.020;11.720;2022-12-18T11:11:55;-4.60;99.90
7648;DHT22;3866;48.020;11.720;2022-12-18T11:14:25;-4.60;99.90
7648;DHT22;3866;48.020;11.720;2022-12-18T11:16:53;-4.60;99.90
7648;DHT22;3866;48.020;11.720;2022-12-18T11:19:29;-4.80;99.90
7648;DHT22;3866;48.020;11.720;2022-12-18T11:21:58;-4.70;99.90
7648;DHT22;3866;48.020;11.720;2022-12-18T11:24:29;-4.50;99.90
7648;DHT22;3866;48.020;11.720;2022-12-18T11:26:58;-4.40;99.90
7648;DHT22;3866;48.020;11.720;2022-12-18T11:29:33;-4.20;99.90
7648;DHT22;3866;48.020;11.720;2022-12-18T11:32:27;-4.10;99.90
7648;DHT22;3866;48.020;11.720;2022-12-18T11:35:02;-3.90;99.90
7648;DHT22;3866;48.020;11.720;2022-12-18T11:37:30;-4.10;99.90
7648;DHT22;3866;48.020;11.720;2022-12-18T11:40:06;-4.00;99.90
7648;DHT22;3866;48.020;11.720;2022-12-18T11:42:41;-4.20;99.90
7648;DHT22;3866;48.020;11.720;2022-12-18T11:45:25;-4.00;99.90
7648;DHT22;3866;48.020;11.720;2022-12-18T11:47:57;-4.20;99.90
7648;DHT22;3866;48.020;11.720;2022-12-18T11:50:28;-4.10;99.90
7648;DHT22;3866;48.020;11.720;2022-12-18T11:52:59;-4.10;99.90
7648;DHT22;3866;48.020;11.720;2022-12-18T11:55:36;-4.30;99.90
7648;DHT22;3866;48.020;11.720;2022-12-18T11:58:14;-4.20;99.90
7648;DHT22;3866;48.020;11.720;2022-12-18T12:00:50;-4.10;99.90
7648;DHT22;3866;48.020;11.720;2022-12-18T12:03:27;-4.10;99.90
7648;DHT22;3866;48.020;11.720;2022-12-18T12:06:11;-4.20;99.90
7648;DHT22;3866;48.020;11.720;2022-12-18T12:08:48;-4.10;99.90
7648;DHT22;3866;48.020;11.720;2022-12-18T12:11:24;-4.10;99.90
7648;DHT22;3866;48.020;11.720;2022-12-18T12:14:07;-4.20;99.90
7648;DHT22;3866;48.020;11.720;2022-12-18T12:16:44;-4.20;99.90
7648;DHT22;3866;48.020;11.720;2022-12-18T12:19:27;-4.40;99.90
7648;DHT22;3866;48.020;11.720;2022-12-18T12:22:04;-4.20;99.90
7648;DHT22;3866;48.020;11.720;2022-12-18T12:24:39;-4.30;99.90
7648;DHT22;3866;48.020;11.720;2022-12-18T12:27:18;-4.30;99.90
7648;DHT22;3866;48.020;11.720;2022-12-18T12:29:54;-4.60;99.90
7648;DHT22;3866;48.020;11.720;2022-12-18T12:32:34;-4.60;99.90
7648;DHT22;3866;48.020;11.720;2022-12-18T12:35:13;-4.70;99.90
7648;DHT22;3866;48.020;11.720;2022-12-18T12:37:50;-4.80;99.90
7648;DHT22;3866;48.020;11.720;2022-12-18T12:40:20;-4.60;99.90
7648;DHT22;3866;48.020;11.720;2022-12-18T12:42:53;-4.60;99.90
7648;DHT22;3866;48.020;11.720;2022-12-18T12:45:44;-4.60;99.90
7648;DHT22;3866;48.020;11.720;2022-12-18T12:48:18;-4.90;99.90
7648;DHT22;3866;48.020;11.720;2022-12-18T12:50:46;-5.00;99.90
7648;DHT22;3866;48.020;11.720;2022-12-18T12:53:25;-5.20;99.90
7648;DHT22;3866;48.020;11.720;2022-12-18T12:55:54;-5.30;99.90
7648;DHT22;3866;48.020;11.720;2022-12-18T12:58:30;-5.20;99.90
7648;DHT22;3866;48.020;11.720;2022-12-18T13:01:05;-5.30;99.90
7648;DHT22;3866;48.020;11.720;2022-12-18T13:03:43;-5.20;99.90
7648;DHT22;3866;48.020;11.720;2022-12-18T13:06:15;-5.30;99.90
7648;DHT22;3866;48.020;11.720;2022-12-18T13:08:55;-5.30;99.90
7648;DHT22;3866;48.020;11.720;2022-12-18T13:11:38;-5.20;99.90
7648;DHT22;3866;48.020;11.720;2022-12-18T13:14:27;-5.20;99.90
7648;DHT22;3866;48.020;11.720;2022-12-18T13:17:15;-5.00;99.90
7648;DHT22;3866;48.020;11.720;2022-12-18T13:19:42;-4.90;99.90
7648;DHT22;3866;48.020;11.720;2022-12-18T13:22:21;-4.80;99.90
7648;DHT22;3866;48.020;11.720;2022-12-18T13:24:48;-4.60;99.90
7648;DHT22;3866;48.020;11.720;2022-12-18T13:27:45;-4.70;99.90
7648;DHT22;3866;48.020;11.720;2022-12-18T13:30:42;-4.60;99.90
7648;DHT22;3866;48.020;11.720;2022-12-18T13:33:37;-4.50;99.90
7648;DHT22;3866;48.020;11.720;2022-12-18T13:36:13;-4.40;99.90
7648;DHT22;3866;48.020;11.720;2022-12-18T13:38:41;-4.40;99.90
7648;DHT22;3866;48.020;11.720;2022-12-18T13:41:26;-4.40;99.90
7648;DHT22;3866;48.020;11.720;2022-12-18T13:43:54;-4.30;99.90
7648;DHT22;3866;48.020;11.720;2022-12-18T13:46:27;-4.30;99.90
7648;DHT22;3866;48.020;11.720;2022-12-18T13:48:57;-4.30;99.90
7648;DHT22;3866;48.020;11.720;2022-12-18T13:51:26;-4.30;99.90
7648;DHT22;3866;48.020;11.720;2022-12-18T13:53:56;-4.50;99.90
7648;DHT22;3866;48.020;11.720;2022-12-18T13:56:25;-4.50;99.90
7648;DHT22;3866;48.020;11.720;2022-12-18T13:59:13;-4.60;99.90
7648;DHT22;3866;48.020;11.720;2022-12-18T14:01:52;-4.50;99.90
7648;DHT22;3866;48.020;11.720;2022-12-18T14:04:22;-4.70;99.90
7648;DHT22;3866;48.020;11.720;2022-12-18T14:06:52;-4.70;99.90
7648;DHT22;3866;48.020;11.720;2022-12-18T14:09:23;-4.90;99.90
7648;DHT22;3866;48.020;11.720;2022-12-18T14:11:51;-4.90;99.90
7648;DHT22;3866;48.020;11.720;2022-12-18T14:14:19;-4.90;99.90
7648;DHT22;3866;48.020;11.720;2022-12-18T14:16:52;-5.10;99.90
7648;DHT22;3866;48.020;11.720;2022-12-18T14:19:22;-5.00;99.90
7648;DHT22;3866;48.020;11.720;2022-12-18T14:21:51;-5.10;99.90
7648;DHT22;3866;48.020;11.720;2022-12-18T14:24:20;-5.00;99.90
7648;DHT22;3866;48.020;11.720;2022-12-18T14:26:51;-5.00;99.90
7648;DHT22;3866;48.020;11.720;2022-12-18T14:29:20;-5.10;99.90
7648;DHT22;3866;48.020;11.720;2022-12-18T14:32:09;-5.10;99.90
7648;DHT22;3866;48.020;11.720;2022-12-18T14:34:37;-5.10;99.90
7648;DHT22;3866;48.020;11.720;2022-12-18T14:37:09;-5.10;99.90
7648;DHT22;3866;48.020;11.720;2022-12-18T14:39:37;-5.00;99.90
7648;DHT22;3866;48.020;11.720;2022-12-18T14:42:04;-5.00;99.90
7648;DHT22;3866;48.020;11.720;2022-12-18T14:44:31;-5.10;99.90
7648;DHT22;3866;48.020;11.720;2022-12-18T14:46:58;-5.10;99.90
7648;DHT22;3866;48.020;11.720;2022-12-18T14:49:30;-5.30;99.90
7648;DHT22;3866;48.020;11.720;2022-12-18T14:51:59;-5.40;99.90
7648;DHT22;3866;48.020;11.720;2022-12-18T14:54:27;-5.40;99.90
7648;DHT22;3866;48.020;11.720;2022-12-18T14:56:59;-5.50;99.90
7648;DHT22;3866;48.020;11.720;2022-12-18T14:59:27;-5.50;99.90
7648;DHT22;3866;48.020;11.720;2022-12-18T15:02:03;-5.40;99.90
7648;DHT22;3866;48.020;11.720;2022-12-18T15:04:34;-5.40;99.90
7648;DHT22;3866;48.020;11.720;2022-12-18T15:07:10;-5.40;99.90
7648;DHT22;3866;48.020;11.720;2022-12-18T15:09:39;-5.40;99.90
7648;DHT22;3866;48.020;11.720;2022-12-18T15:12:22;-5.30;99.90
7648;DHT22;3866;48.020;11.720;2022-12-18T15:14:51;-5.20;99.90
7648;DHT22;3866;48.020;11.720;2022-12-18T15:17:20;-5.30;99.90
7648;DHT22;3866;48.020;11.720;2022-12-18T15:19:50;-5.40;99.90
7648;DHT22;3866;48.020;11.720;2022-12-18T15:22:21;-5.60;99.90
7648;DHT22;3866;48.020;11.720;2022-12-18T15:24:49;-5.50;99.90
7648;DHT22;3866;48.020;11.720;2022-12-18T15:27:26;-5.50;99.90
7648;DHT22;3866;48.020;11.720;2022-12-18T15:30:20;-5.50;99.90
7648;DHT22;3866;48.020;11.720;2022-12-18T15:32:48;-5.40;99.90
7648;DHT22;3866;48.020;11.720;2022-12-18T15:35:19;-5.40;99.90
7648;DHT22;3866;48.020;11.720;2022-12-18T15:37:46;-5.40;99.90
7648;DHT22;3866;48.020;11.720;2022-12-18T15:40:15;-5.50;99.90
7648;DHT22;3866;48.020;11.720;2022-12-18T15:42:43;-5.40;99.90
7648;DHT22;3866;48.020;11.720;2022-12-18T15:45:27;-5.40;99.90
7648;DHT22;3866;48.020;11.720;2022-12-18T15:47:55;-5.40;99.90
7648;DHT22;3866;48.020;11.720;2022-12-18T15:50:23;-5.30;99.90
7648;DHT22;3866;48.020;11.720;2022-12-18T15:52:52;-5.30;99.90
7648;DHT22;3866;48.020;11.720;2022-12-18T15:55:22;-5.30;99.90
7648;DHT22;3866;48.020;11.720;2022-12-18T15:58:08;-5.40;99.90
7648;DHT22;3866;48.020;11.720;2022-12-18T16:00:37;-5.50;99.90
7648;DHT22;3866;48.020;11.720;2022-12-18T16:03:05;-5.60;99.90
7648;DHT22;3866;48.020;11.720;2022-12-18T16:05:34;-5.60;99.90
7648;DHT22;3866;48.020;11.720;2022-12-18T16:08:01;-5.60;99.90